Flight Track Log - Related Links

Times and Time Zones

All times are in EDT time to prevent confusion due to time zone crossing. See the C-GONN flight status page for this flight to view local times or setup timezone preferences in your user account.

Time Position Orientation Groundspeed Altitude Reporting Facility
EDT Latitude Longitude Course Direction KTS MPH feet Rate Location/Type
Tue 09:25:14 PM 49.1667 -123.1833 90° East 110 127 400  Level Vancouver Center
Tue 09:26:14 PM 49.1667 -123.1333 90° East 130 150 1,700 1,300 Climbing Vancouver Center
Tue 09:27:14 PM 49.1667 -123.0833 90° East 130 150 3,000 1,150 Climbing Vancouver Center
Tue 09:28:14 PM 49.1667 -123.0000 90° East 140 161 4,000 1,100 Climbing Vancouver Center
Tue 09:29:14 PM 49.2000 -122.9833 18° North 160 184 5,200 1,250 Climbing Vancouver Center
Tue 09:30:14 PM 49.2333 -122.9333 44° Northeast 160 184 6,500 1,150 Climbing Vancouver Center
Tue 09:31:14 PM 49.2667 -122.9000 33° Northeast 170 196 7,500 1,000 Climbing Vancouver Center
Tue 09:32:14 PM 49.3167 -122.8500 33° Northeast 180 207 8,500 1,000 Climbing Vancouver Center
Tue 09:33:14 PM 49.3500 -122.8000 44° Northeast 190 219 9,500 1,050 Climbing Vancouver Center
Tue 09:34:14 PM 49.4000 -122.7500 33° Northeast 190 219 10,600 1,050 Climbing Vancouver Center
Tue 09:35:14 PM 49.4500 -122.7167 23° Northeast 190 219 11,600 1,000 Climbing Vancouver Center
Tue 09:36:14 PM 49.5000 -122.6667 33° Northeast 200 230 12,600 850 Climbing Vancouver Center
Tue 09:37:14 PM 49.5333 -122.6167 44° Northeast 210 242 13,300 800 Climbing Vancouver Center
Tue 09:38:14 PM 49.5833 -122.5667 33° Northeast 210 242 14,200 800 Climbing Vancouver Center
Tue 09:39:14 PM 49.6333 -122.5167 33° Northeast 210 242 14,900 400 Climbing Vancouver Center
Tue 09:40:14 PM 49.6833 -122.4500 41° Northeast 240 276 15,000 50 Climbing Vancouver Center
Tue 09:41:14 PM 49.7500 -122.3833 33° Northeast 270 311 15,000  Level Vancouver Center
Tue 09:42:14 PM 49.8167 -122.3167 33° Northeast 270 311 15,000  Level Vancouver Center
Tue 09:43:14 PM 49.8667 -122.2500 41° Northeast 270 311 15,000 50 Level Vancouver Center
Tue 09:44:14 PM 49.9333 -122.1667 39° Northeast 270 311 15,100 50 Climbing Vancouver Center
Tue 09:45:14 PM 50.0000 -122.1167 26° Northeast 280 322 15,100  Level Vancouver Center
Tue 09:46:14 PM 50.0667 -122.0333 39° Northeast 280 322 15,100 -50 Level Vancouver Center
Tue 09:47:14 PM 50.1333 -121.9833 26° Northeast 280 322 15,000 -50 Descending Vancouver Center
Tue 09:48:14 PM 50.1667 -121.9000 58° Northeast 280 322 15,000  Level Vancouver Center
Tue 09:49:14 PM 50.2333 -121.8167 39° Northeast 280 322 15,000  Level Vancouver Center
Tue 09:50:14 PM 50.3000 -121.7667 26° Northeast 280 322 15,000  Level Vancouver Center
Tue 09:51:14 PM 50.3667 -121.6833 39° Northeast 280 322 15,000  Level Vancouver Center
Tue 09:52:14 PM 50.4333 -121.6000 39° Northeast 280 322 15,000 -150 Level Vancouver Center
Tue 09:53:14 PM 50.4833 -121.5500 32° Northeast 270 311 14,700 -750 Descending Vancouver Center
Tue 09:54:14 PM 50.5500 -121.4667 38° Northeast 290 334 13,500 -1,100 Descending Vancouver Center
Tue 09:55:14 PM 50.6167 -121.3833 38° Northeast 310 357 12,500 -1,100 Descending Vancouver Center
Tue 09:56:14 PM 50.6667 -121.2500 59° Northeast 310 357 11,300 -1,200 Descending Vancouver Center
Tue 09:57:14 PM 50.7000 -121.1333 66° East 310 357 10,100 -1,350 Descending Vancouver Center
Tue 09:58:14 PM 50.7167 -121.0000 79° East 300 345 8,600 -1,400 Descending Vancouver Center
Tue 09:59:14 PM 50.7500 -120.9000 62° Northeast 290 334 7,300 -1,350 Descending Vancouver Center
Tue 10:00:14 PM 50.7333 -120.7833 103° East 250 288 5,900 -1,400 Descending Vancouver Center
Tue 10:01:14 PM 50.7333 -120.6833 90° East 230 265 4,500 -1,250 Descending Vancouver Center
Tue 10:02:14 PM 50.7167 -120.6000 108° East 190 219 3,400 -1,000 Descending Vancouver Center
Tue 10:03:14 PM 50.7167 -120.5500 90° East 170 196 2,500 -900 Descending Vancouver Center

Login

Don't have an account? Register now (free) for customized features, flight alerts, and more!